Time;durP1;ratioP1;P1;durP2;ratioP2;P2;SDS_P1;SDS_P2;PMS_P1;PMS_P2;Temp;Humidity;BMP_temperature;BMP_pressure;BME280_temperature;BME280_humidity;BME280_pressure;Samples;Min_cycle;Max_cycle;Signal;HPM_P1;HPM_P2
2023/03/06 00:01:01;;;;;;;;;;;2.50;99.90;;;;;;5055410;28;1161;-62
2023/03/06 00:03:28;;;;;;;;;;;2.40;99.90;;;;;;5055972;28;780;-62
2023/03/06 00:05:56;;;;;;;;;;;2.40;99.90;;;;;;5055492;28;1455;-63
2023/03/06 00:08:22;;;;;;;;;;;2.40;99.90;;;;;;5055447;28;1022;-63
2023/03/06 00:10:48;;;;;;;;;;;2.40;99.90;;;;;;5055663;28;1149;-61
2023/03/06 00:13:17;;;;;;;;;;;2.40;99.90;;;;;;5054603;28;1120;-63
2023/03/06 00:15:44;;;;;;;;;;;2.40;99.90;;;;;;5055637;28;1002;-63
2023/03/06 00:18:10;;;;;;;;;;;2.40;99.90;;;;;;5055665;28;935;-63
2023/03/06 00:20:38;;;;;;;;;;;2.30;99.90;;;;;;5055233;28;2022;-64
2023/03/06 00:23:04;;;;;;;;;;;2.30;99.90;;;;;;5055482;28;1149;-62
2023/03/06 00:25:30;;;;;;;;;;;2.30;99.90;;;;;;5055545;28;999;-63
2023/03/06 00:27:56;;;;;;;;;;;2.20;99.90;;;;;;5055526;28;1052;-62
2023/03/06 00:30:23;;;;;;;;;;;2.20;99.90;;;;;;5054846;28;1053;-63
2023/03/06 00:32:51;;;;;;;;;;;2.20;99.90;;;;;;5055025;28;1185;-64
2023/03/06 00:35:17;;;;;;;;;;;2.30;99.90;;;;;;5054992;28;994;-62
2023/03/06 00:37:43;;;;;;;;;;;2.20;99.90;;;;;;5055540;28;1061;-62
2023/03/06 00:40:14;;;;;;;;;;;2.20;99.90;;;;;;5054600;28;1977;-63
2023/03/06 00:42:40;;;;;;;;;;;2.20;99.90;;;;;;5054917;28;1200;-63
2023/03/06 00:45:07;;;;;;;;;;;2.20;99.90;;;;;;5055102;28;991;-63
2023/03/06 00:47:33;;;;;;;;;;;2.20;99.90;;;;;;5055035;28;995;-63
2023/03/06 00:49:59;;;;;;;;;;;2.10;99.90;;;;;;5054754;28;982;-63
2023/03/06 00:52:25;;;;;;;;;;;2.20;99.90;;;;;;5054771;28;1239;-63
2023/03/06 00:54:51;;;;;;;;;;;2.20;99.90;;;;;;5054818;28;1022;-62
2023/03/06 00:57:18;;;;;;;;;;;2.20;99.90;;;;;;5055043;28;832;-63
2023/03/06 00:59:44;;;;;;;;;;;2.20;99.90;;;;;;5054353;28;1980;-62
2023/03/06 01:02:11;;;;;;;;;;;2.20;99.90;;;;;;5054629;28;1161;-61
2023/03/06 01:04:37;;;;;;;;;;;2.20;99.90;;;;;;5054451;28;1429;-64
2023/03/06 01:07:03;;;;;;;;;;;2.20;99.90;;;;;;5055030;28;813;-62
2023/03/06 01:09:29;;;;;;;;;;;2.20;99.90;;;;;;5054290;28;923;-63
2023/03/06 01:11:55;;;;;;;;;;;2.20;99.90;;;;;;5054626;28;1098;-63
2023/03/06 01:14:21;;;;;;;;;;;2.30;99.90;;;;;;5054457;28;982;-63
2023/03/06 01:16:48;;;;;;;;;;;2.30;99.90;;;;;;5054881;28;1009;-63
2023/03/06 01:19:14;;;;;;;;;;;2.20;99.90;;;;;;5054506;28;1973;-62
2023/03/06 01:21:40;;;;;;;;;;;2.30;99.90;;;;;;5054291;28;1145;-63
2023/03/06 01:24:06;;;;;;;;;;;2.30;99.90;;;;;;5054372;28;1126;-62
2023/03/06 01:26:33;;;;;;;;;;;2.30;99.90;;;;;;5054622;28;938;-63
2023/03/06 01:28:59;;;;;;;;;;;2.30;99.90;;;;;;5053899;28;1006;-62
2023/03/06 01:31:25;;;;;;;;;;;2.30;99.90;;;;;;5053837;28;1180;-63
2023/03/06 01:33:52;;;;;;;;;;;2.40;99.90;;;;;;5054332;28;1043;-64
2023/03/06 01:36:18;;;;;;;;;;;2.30;99.90;;;;;;5054347;28;1002;-62
2023/03/06 01:38:44;;;;;;;;;;;2.40;99.90;;;;;;5053753;28;1975;-63
2023/03/06 01:41:14;;;;;;;;;;;2.40;99.90;;;;;;5053801;28;1157;-62
2023/03/06 01:43:43;;;;;;;;;;;2.30;99.90;;;;;;5054028;28;993;-63
2023/03/06 01:46:15;;;;;;;;;;;2.30;99.90;;;;;;5053407;28;1899;-63
2023/03/06 01:48:42;;;;;;;;;;;2.30;99.90;;;;;;5052673;28;1014;-63
2023/03/06 01:51:09;;;;;;;;;;;2.40;99.90;;;;;;5053585;28;1169;-63
2023/03/06 01:53:35;;;;;;;;;;;2.40;99.90;;;;;;5053780;28;987;-63
2023/03/06 01:56:02;;;;;;;;;;;2.40;99.90;;;;;;5053717;28;800;-63
2023/03/06 01:58:28;;;;;;;;;;;2.40;99.90;;;;;;5069142;28;906;-63
2023/03/06 02:00:54;;;;;;;;;;;2.40;99.90;;;;;;5053261;28;1903;-63
2023/03/06 02:03:21;;;;;;;;;;;2.40;99.90;;;;;;5033696;28;1042;-64
2023/03/06 02:05:48;;;;;;;;;;;2.40;99.90;;;;;;5033319;28;1220;-63
2023/03/06 02:08:15;;;;;;;;;;;2.40;99.90;;;;;;5033221;28;1014;-62
2023/03/06 02:10:42;;;;;;;;;;;2.40;99.90;;;;;;5033554;28;1062;-63
2023/03/06 02:13:08;;;;;;;;;;;2.40;99.90;;;;;;5052508;28;1145;-63
2023/03/06 02:15:34;;;;;;;;;;;2.40;99.90;;;;;;5053327;28;967;-63
2023/03/06 02:18:01;;;;;;;;;;;2.40;99.90;;;;;;5053319;28;1069;-63
2023/03/06 02:20:30;;;;;;;;;;;2.50;99.90;;;;;;5052851;28;1971;-62
2023/03/06 02:23:02;;;;;;;;;;;2.50;99.90;;;;;;5053004;28;1169;-62
2023/03/06 02:25:33;;;;;;;;;;;2.50;99.90;;;;;;5052102;28;1411;-63
2023/03/06 02:28:00;;;;;;;;;;;2.50;99.90;;;;;;5053261;28;994;-63
2023/03/06 02:30:26;;;;;;;;;;;2.60;99.90;;;;;;5052627;28;934;-63
2023/03/06 02:32:53;;;;;;;;;;;2.50;99.90;;;;;;5052810;28;1219;-63
2023/03/06 02:35:20;;;;;;;;;;;2.60;99.90;;;;;;5053102;28;790;-63
2023/03/06 02:37:47;;;;;;;;;;;2.60;99.90;;;;;;5053213;28;1061;-63
2023/03/06 02:40:13;;;;;;;;;;;2.70;99.90;;;;;;5052854;28;1961;-61
2023/03/06 02:42:50;;;;;;;;;;;2.70;99.90;;;;;;5053032;28;1042;-63
2023/03/06 02:45:20;;;;;;;;;;;2.80;99.90;;;;;;5053073;28;1065;-63
2023/03/06 02:47:47;;;;;;;;;;;2.70;99.90;;;;;;5053181;28;820;-62
2023/03/06 02:50:13;;;;;;;;;;;2.80;99.90;;;;;;5052498;28;918;-62
2023/03/06 02:52:39;;;;;;;;;;;2.80;99.90;;;;;;5057443;28;1235;-63
2023/03/06 02:55:05;;;;;;;;;;;2.90;99.90;;;;;;5052819;28;1054;-63
2023/03/06 02:57:31;;;;;;;;;;;2.90;99.90;;;;;;5052879;28;907;-64
2023/03/06 02:59:58;;;;;;;;;;;3.00;99.90;;;;;;5052128;28;1907;-64
2023/03/06 03:02:24;;;;;;;;;;;3.00;99.90;;;;;;5052553;28;1205;-64
2023/03/06 03:04:50;;;;;;;;;;;3.00;99.90;;;;;;5052446;28;1233;-64
2023/03/06 03:07:16;;;;;;;;;;;3.00;99.90;;;;;;5053273;28;997;-64
2023/03/06 03:09:42;;;;;;;;;;;3.00;99.90;;;;;;5052380;28;1089;-63
2023/03/06 03:12:08;;;;;;;;;;;3.00;99.90;;;;;;5052481;28;1200;-64
2023/03/06 03:14:35;;;;;;;;;;;3.00;99.90;;;;;;5052580;28;783;-63
2023/03/06 03:17:01;;;;;;;;;;;3.00;99.90;;;;;;5052708;28;1015;-64
2023/03/06 03:19:27;;;;;;;;;;;3.10;99.90;;;;;;5052179;28;1898;-63
2023/03/06 03:21:53;;;;;;;;;;;3.20;99.90;;;;;;5052353;28;1117;-63
2023/03/06 03:24:19;;;;;;;;;;;3.10;99.90;;;;;;5052703;28;1076;-63
2023/03/06 03:26:45;;;;;;;;;;;3.20;99.90;;;;;;5052990;28;985;-63
2023/03/06 03:29:12;;;;;;;;;;;3.30;99.90;;;;;;5051285;28;1053;-64
2023/03/06 03:31:38;;;;;;;;;;;3.30;99.90;;;;;;5052252;28;1141;-64
2023/03/06 03:34:04;;;;;;;;;;;3.30;99.90;;;;;;5052640;28;1055;-63
2023/03/06 03:36:31;;;;;;;;;;;3.30;99.90;;;;;;5052614;28;1014;-63
2023/03/06 03:38:57;;;;;;;;;;;3.30;99.90;;;;;;5052189;28;1027;-63
2023/03/06 03:41:23;;;;;;;;;;;3.20;99.90;;;;;;5051969;28;1906;-64
2023/03/06 03:43:49;;;;;;;;;;;3.20;99.90;;;;;;5052578;28;812;-63
2023/03/06 03:46:15;;;;;;;;;;;3.20;99.90;;;;;;5052469;28;943;-64
2023/03/06 03:48:41;;;;;;;;;;;3.10;99.90;;;;;;5052134;28;1037;-63
2023/03/06 03:51:09;;;;;;;;;;;3.10;99.90;;;;;;5051854;28;1169;-64
2023/03/06 03:53:35;;;;;;;;;;;3.10;99.90;;;;;;5052299;28;990;-63
2023/03/06 03:56:02;;;;;;;;;;;3.00;99.90;;;;;;5052218;28;1741;-62
2023/03/06 03:58:28;;;;;;;;;;;3.10;99.90;;;;;;5052066;28;1085;-62
2023/03/06 04:00:55;;;;;;;;;;;3.00;99.90;;;;;;5051728;28;1911;-64
2023/03/06 04:03:21;;;;;;;;;;;3.10;99.90;;;;;;5052411;28;1245;-63
2023/03/06 04:05:47;;;;;;;;;;;3.00;99.90;;;;;;5052065;28;1173;-63
2023/03/06 04:08:13;;;;;;;;;;;3.10;99.90;;;;;;5051930;28;930;-63
2023/03/06 04:10:39;;;;;;;;;;;3.00;99.90;;;;;;5053268;28;962;-64
2023/03/06 04:13:05;;;;;;;;;;;3.00;99.90;;;;;;5055583;28;1134;-64
2023/03/06 04:15:31;;;;;;;;;;;3.00;99.90;;;;;;5055809;28;998;-64
2023/03/06 04:17:58;;;;;;;;;;;3.10;99.90;;;;;;5055307;28;990;-63
2023/03/06 04:20:24;;;;;;;;;;;3.00;99.90;;;;;;5055655;28;1898;-64
2023/03/06 04:22:51;;;;;;;;;;;3.00;99.90;;;;;;5055556;28;1164;-64
2023/03/06 04:25:17;;;;;;;;;;;3.00;99.90;;;;;;5056121;28;1001;-63
2023/03/06 04:27:43;;;;;;;;;;;2.90;99.90;;;;;;5055765;28;834;-63
2023/03/06 04:30:10;;;;;;;;;;;2.90;99.90;;;;;;5054628;28;1118;-63
2023/03/06 04:32:36;;;;;;;;;;;2.80;99.90;;;;;;5055297;28;1177;-63
2023/03/06 04:35:02;;;;;;;;;;;2.80;99.90;;;;;;5055407;28;895;-63
2023/03/06 04:37:29;;;;;;;;;;;2.80;99.90;;;;;;5055548;28;1163;-64
2023/03/06 04:39:55;;;;;;;;;;;2.80;99.90;;;;;;5054761;28;1902;-64
2023/03/06 04:42:21;;;;;;;;;;;2.80;99.90;;;;;;5055098;28;1185;-64
2023/03/06 04:44:47;;;;;;;;;;;2.80;99.90;;;;;;5055305;28;1049;-63
2023/03/06 04:47:14;;;;;;;;;;;2.70;99.90;;;;;;5055329;28;973;-63
2023/03/06 04:49:40;;;;;;;;;;;2.80;99.90;;;;;;5054750;28;977;-63
2023/03/06 04:52:06;;;;;;;;;;;2.80;99.90;;;;;;5054959;28;1138;-63
2023/03/06 04:54:32;;;;;;;;;;;2.80;99.90;;;;;;5054151;28;1111;-63
2023/03/06 04:56:58;;;;;;;;;;;2.90;99.90;;;;;;5054981;28;1034;-64
2023/03/06 04:59:24;;;;;;;;;;;2.90;99.90;;;;;;5054372;28;1965;-64
2023/03/06 05:01:50;;;;;;;;;;;2.80;99.90;;;;;;5054504;28;1142;-63
2023/03/06 05:04:17;;;;;;;;;;;2.80;99.90;;;;;;5070769;28;1026;-64
2023/03/06 05:06:43;;;;;;;;;;;2.80;99.90;;;;;;5054410;28;1213;-63
2023/03/06 05:09:09;;;;;;;;;;;2.80;99.90;;;;;;5054412;28;998;-63
2023/03/06 05:11:35;;;;;;;;;;;2.90;99.90;;;;;;5054400;28;1176;-63
2023/03/06 05:14:01;;;;;;;;;;;2.80;99.90;;;;;;5054549;28;974;-63
2023/03/06 05:16:28;;;;;;;;;;;2.70;99.90;;;;;;5054428;28;901;-63
2023/03/06 05:18:54;;;;;;;;;;;2.60;99.90;;;;;;5054453;28;771;-63
2023/03/06 05:21:20;;;;;;;;;;;2.70;99.90;;;;;;5053393;28;1968;-62
2023/03/06 05:23:46;;;;;;;;;;;2.70;99.90;;;;;;5053980;28;1050;-63
2023/03/06 05:26:13;;;;;;;;;;;2.70;99.90;;;;;;5054109;28;956;-62
2023/03/06 05:28:39;;;;;;;;;;;2.70;99.90;;;;;;5053772;28;930;-62
2023/03/06 05:31:05;;;;;;;;;;;2.80;99.90;;;;;;5053867;28;1113;-63
2023/03/06 05:33:32;;;;;;;;;;;2.80;99.90;;;;;;5054135;28;1204;-64
2023/03/06 05:35:59;;;;;;;;;;;2.70;99.90;;;;;;5054274;28;946;-63
2023/03/06 05:38:25;;;;;;;;;;;2.80;99.90;;;;;;5053742;28;1005;-63
2023/03/06 05:40:51;;;;;;;;;;;2.70;99.90;;;;;;5054428;28;1906;-63
2023/03/06 05:43:17;;;;;;;;;;;2.70;99.90;;;;;;5054275;28;1093;-63
2023/03/06 05:45:43;;;;;;;;;;;2.80;99.90;;;;;;5053984;28;1069;-64
2023/03/06 05:48:11;;;;;;;;;;;2.70;99.90;;;;;;5053738;28;990;-63
2023/03/06 05:50:37;;;;;;;;;;;2.70;99.90;;;;;;5054119;28;946;-64
2023/03/06 05:53:03;;;;;;;;;;;2.70;99.90;;;;;;5053901;28;1177;-63
2023/03/06 05:55:30;;;;;;;;;;;2.60;99.90;;;;;;5053403;28;1084;-63
2023/03/06 05:57:56;;;;;;;;;;;2.60;99.90;;;;;;5052292;28;1323;-63
2023/03/06 06:00:23;;;;;;;;;;;2.60;99.90;;;;;;5052341;28;1971;-63
2023/03/06 06:02:49;;;;;;;;;;;2.60;99.90;;;;;;5050978;28;1382;-63
2023/03/06 06:05:15;;;;;;;;;;;2.50;99.90;;;;;;5052748;28;1338;-63
2023/03/06 06:07:41;;;;;;;;;;;2.50;99.90;;;;;;5052910;28;1372;-64
2023/03/06 06:10:08;;;;;;;;;;;2.50;99.90;;;;;;5052974;28;1278;-63
2023/03/06 06:12:34;;;;;;;;;;;2.50;99.90;;;;;;5053256;28;1249;-64
2023/03/06 06:15:00;;;;;;;;;;;2.50;99.90;;;;;;5053101;28;1194;-62
2023/03/06 06:17:26;;;;;;;;;;;2.40;99.90;;;;;;5053182;28;1357;-63
2023/03/06 06:19:53;;;;;;;;;;;2.40;99.90;;;;;;5052545;28;1960;-64
2023/03/06 06:22:19;;;;;;;;;;;2.30;99.90;;;;;;5052811;28;1174;-63
2023/03/06 06:24:46;;;;;;;;;;;2.30;99.90;;;;;;5053386;28;1014;-63
2023/03/06 06:27:12;;;;;;;;;;;2.30;99.90;;;;;;5052958;28;1207;-63
2023/03/06 06:29:38;;;;;;;;;;;2.30;99.90;;;;;;5052837;28;812;-64
2023/03/06 06:32:04;;;;;;;;;;;2.30;99.90;;;;;;5052403;28;1241;-63
2023/03/06 06:34:30;;;;;;;;;;;2.20;99.90;;;;;;5052668;28;1077;-64
2023/03/06 06:36:56;;;;;;;;;;;2.20;99.90;;;;;;5053038;28;1061;-65
2023/03/06 06:39:23;;;;;;;;;;;2.30;99.90;;;;;;5052644;28;963;-64
2023/03/06 06:41:51;;;;;;;;;;;2.20;99.90;;;;;;5052385;28;1967;-64
2023/03/06 06:44:17;;;;;;;;;;;2.30;99.90;;;;;;5052665;28;1170;-64
2023/03/06 06:46:44;;;;;;;;;;;2.30;99.90;;;;;;5051578;28;1268;-64
2023/03/06 06:49:11;;;;;;;;;;;2.30;99.90;;;;;;5051991;28;1260;-63
2023/03/06 06:51:38;;;;;;;;;;;2.40;99.90;;;;;;5052780;28;1213;-64
2023/03/06 06:54:04;;;;;;;;;;;2.40;99.90;;;;;;5052829;28;1058;-63
2023/03/06 06:56:30;;;;;;;;;;;2.40;99.90;;;;;;5053017;28;954;-64
2023/03/06 06:59:00;;;;;;;;;;;2.50;99.90;;;;;;5052531;28;1010;-64
2023/03/06 07:01:26;;;;;;;;;;;2.50;99.90;;;;;;5068473;28;1918;-64
2023/03/06 07:03:52;;;;;;;;;;;2.60;99.90;;;;;;5052188;28;1198;-64
2023/03/06 07:06:19;;;;;;;;;;;2.60;99.90;;;;;;5052312;28;1741;-64
2023/03/06 07:08:45;;;;;;;;;;;2.60;99.90;;;;;;5052138;28;1242;-64
2023/03/06 07:11:18;;;;;;;;;;;2.60;99.90;;;;;;5050794;28;1202;-63
2023/03/06 07:13:45;;;;;;;;;;;2.60;99.90;;;;;;5048243;28;1357;-64
2023/03/06 07:16:12;;;;;;;;;;;2.60;99.90;;;;;;5051117;28;1335;-64
2023/03/06 07:18:38;;;;;;;;;;;2.70;99.90;;;;;;5050360;28;1358;-64
2023/03/06 07:21:05;;;;;;;;;;;2.70;99.90;;;;;;5050940;28;1902;-64
2023/03/06 07:23:31;;;;;;;;;;;2.70;99.90;;;;;;5050804;28;1145;-64
2023/03/06 07:25:57;;;;;;;;;;;2.70;99.90;;;;;;5051958;28;1314;-64
2023/03/06 07:28:24;;;;;;;;;;;2.70;99.90;;;;;;5051184;28;1187;-63
2023/03/06 07:30:50;;;;;;;;;;;2.80;99.90;;;;;;5051909;28;1435;-63
2023/03/06 07:33:16;;;;;;;;;;;2.80;99.90;;;;;;5052307;28;1242;-64
2023/03/06 07:35:42;;;;;;;;;;;2.80;99.90;;;;;;5052668;28;1250;-65
2023/03/06 07:38:09;;;;;;;;;;;3.00;99.90;;;;;;5051640;28;1300;-63
2023/03/06 07:40:37;;;;;;;;;;;3.10;99.90;;;;;;5051596;28;1902;-64
2023/03/06 07:43:04;;;;;;;;;;;3.20;99.90;;;;;;5051294;28;1067;-64
2023/03/06 07:45:30;;;;;;;;;;;3.10;99.90;;;;;;5052850;28;1161;-65
2023/03/06 07:47:56;;;;;;;;;;;3.10;99.90;;;;;;5055665;28;1538;-64
2023/03/06 07:50:23;;;;;;;;;;;3.20;99.90;;;;;;5056440;28;1160;-64
2023/03/06 07:52:50;;;;;;;;;;;3.20;99.90;;;;;;5056823;28;1412;-63
2023/03/06 07:55:16;;;;;;;;;;;3.30;99.90;;;;;;5057730;28;1081;-64
2023/03/06 07:57:42;;;;;;;;;;;3.30;99.90;;;;;;5057288;28;1054;-64
2023/03/06 08:00:11;;;;;;;;;;;3.30;99.90;;;;;;5052779;28;1957;-64
2023/03/06 08:02:37;;;;;;;;;;;3.40;99.90;;;;;;5057304;28;1122;-64
2023/03/06 08:05:05;;;;;;;;;;;3.30;99.90;;;;;;5057463;28;1191;-64
2023/03/06 08:07:31;;;;;;;;;;;3.30;99.90;;;;;;5057240;28;1060;-64
2023/03/06 08:09:57;;;;;;;;;;;3.10;99.90;;;;;;5057544;28;832;-63
2023/03/06 08:12:23;;;;;;;;;;;3.20;99.90;;;;;;5057621;28;1041;-64
2023/03/06 08:14:49;;;;;;;;;;;3.30;99.90;;;;;;5057461;28;1047;-64
2023/03/06 08:17:15;;;;;;;;;;;3.30;99.90;;;;;;5057194;28;1103;-64
2023/03/06 08:19:42;;;;;;;;;;;3.50;99.90;;;;;;5057287;28;1069;-65
2023/03/06 08:22:09;;;;;;;;;;;3.60;99.90;;;;;;5057045;28;1906;-65
2023/03/06 08:24:36;;;;;;;;;;;3.70;99.90;;;;;;5057538;28;998;-64
2023/03/06 08:27:02;;;;;;;;;;;3.80;99.90;;;;;;5056853;28;982;-64
2023/03/06 08:29:28;;;;;;;;;;;3.90;99.90;;;;;;5057083;28;1061;-65
2023/03/06 08:31:54;;;;;;;;;;;3.90;99.90;;;;;;5056756;28;1145;-64
2023/03/06 08:34:23;;;;;;;;;;;4.00;99.90;;;;;;5057001;28;1000;-64
2023/03/06 08:36:49;;;;;;;;;;;4.10;99.90;;;;;;5057162;28;954;-64
2023/03/06 08:39:15;;;;;;;;;;;4.30;99.90;;;;;;5056728;28;975;-64
2023/03/06 08:41:42;;;;;;;;;;;4.40;99.90;;;;;;5056189;28;1977;-65
2023/03/06 08:44:08;;;;;;;;;;;4.50;99.90;;;;;;5056247;28;1807;-64
2023/03/06 08:46:35;;;;;;;;;;;4.60;99.90;;;;;;5056865;28;1002;-64
2023/03/06 08:49:01;;;;;;;;;;;4.70;99.90;;;;;;5056133;28;1105;-65
2023/03/06 08:51:27;;;;;;;;;;;4.80;99.90;;;;;;5056418;28;1041;-64
2023/03/06 08:53:54;;;;;;;;;;;4.80;99.90;;;;;;5056360;28;1447;-65
2023/03/06 08:56:25;;;;;;;;;;;4.90;99.90;;;;;;5056496;28;1006;-64
2023/03/06 08:58:51;;;;;;;;;;;5.00;99.90;;;;;;5056292;28;994;-65
2023/03/06 09:01:22;;;;;;;;;;;4.90;99.90;;;;;;5056269;28;1902;-65
2023/03/06 09:03:49;;;;;;;;;;;5.00;99.90;;;;;;5057265;28;890;-64
2023/03/06 09:06:15;;;;;;;;;;;5.00;99.90;;;;;;5056201;28;1160;-64
2023/03/06 09:08:43;;;;;;;;;;;5.20;99.90;;;;;;5055897;28;810;-65
2023/03/06 09:11:10;;;;;;;;;;;5.30;99.90;;;;;;5056333;28;994;-65
2023/03/06 09:13:36;;;;;;;;;;;5.30;99.90;;;;;;5055704;28;1134;-64
2023/03/06 09:16:02;;;;;;;;;;;5.40;99.90;;;;;;5054217;28;1732;-64
2023/03/06 09:18:28;;;;;;;;;;;5.50;99.90;;;;;;5054724;28;1350;-64
2023/03/06 09:20:55;;;;;;;;;;;5.50;99.90;;;;;;5051707;28;2872;-65
2023/03/06 09:23:21;;;;;;;;;;;5.40;99.90;;;;;;5055869;28;1319;-63
2023/03/06 09:25:51;;;;;;;;;;;5.40;99.90;;;;;;5056550;28;1072;-64
2023/03/06 09:28:17;;;;;;;;;;;5.60;99.90;;;;;;5055903;28;1001;-64
2023/03/06 09:30:43;;;;;;;;;;;5.60;99.90;;;;;;5056051;28;1010;-64
2023/03/06 09:33:10;;;;;;;;;;;5.50;99.90;;;;;;5055632;28;1157;-64
2023/03/06 09:35:39;;;;;;;;;;;5.60;99.90;;;;;;5055864;28;994;-64
2023/03/06 09:38:06;;;;;;;;;;;5.60;99.90;;;;;;5055601;28;1053;-64
2023/03/06 09:40:41;;;;;;;;;;;5.70;99.90;;;;;;5055849;28;1910;-64
2023/03/06 09:43:16;;;;;;;;;;;5.70;99.90;;;;;;5055463;28;1134;-64
2023/03/06 09:45:43;;;;;;;;;;;5.60;99.90;;;;;;5055839;28;1192;-64
2023/03/06 09:48:13;;;;;;;;;;;5.50;99.90;;;;;;5055103;28;1025;-64
2023/03/06 09:50:50;;;;;;;;;;;5.50;99.90;;;;;;5059968;28;1396;-64
2023/03/06 09:53:35;;;;;;;;;;;5.40;99.90;;;;;;5055757;28;1145;-64
2023/03/06 09:56:08;;;;;;;;;;;5.20;99.90;;;;;;5055910;28;811;-64
2023/03/06 09:58:40;;;;;;;;;;;5.00;99.90;;;;;;5055307;28;998;-64
2023/03/06 10:01:39;;;;;;;;;;;4.90;99.90;;;;;;5054551;28;1973;-64
2023/03/06 10:04:29;;;;;;;;;;;4.90;99.90;;;;;;5002263;28;1167;-65
2023/03/06 10:06:59;;;;;;;;;;;4.80;99.90;;;;;;5035002;28;979;-64
2023/03/06 10:09:32;;;;;;;;;;;4.80;99.90;;;;;;5034601;28;848;-65
2023/03/06 10:12:00;;;;;;;;;;;4.90;99.90;;;;;;5040731;28;1130;-64
2023/03/06 10:14:29;;;;;;;;;;;5.10;99.90;;;;;;5055255;28;765;-64
2023/03/06 10:16:55;;;;;;;;;;;5.20;99.90;;;;;;5054928;28;994;-64
2023/03/06 10:19:22;;;;;;;;;;;5.30;99.90;;;;;;5054889;28;990;-65
2023/03/06 10:21:55;;;;;;;;;;;5.30;99.90;;;;;;5054995;28;1990;-64
2023/03/06 10:24:27;;;;;;;;;;;5.30;99.90;;;;;;5055009;28;1074;-65
2023/03/06 10:27:15;;;;;;;;;;;5.20;99.90;;;;;;5054524;28;1077;-63
2023/03/06 10:29:46;;;;;;;;;;;5.10;99.90;;;;;;5054925;28;951;-64
2023/03/06 10:32:35;;;;;;;;;;;5.00;99.90;;;;;;5055165;28;1125;-65
2023/03/06 10:35:05;;;;;;;;;;;5.00;99.90;;;;;;5054913;28;934;-64
2023/03/06 10:37:31;;;;;;;;;;;5.20;99.90;;;;;;5054427;28;1046;-64
2023/03/06 10:40:07;;;;;;;;;;;5.30;99.90;;;;;;5054613;28;998;-64
2023/03/06 10:42:33;;;;;;;;;;;5.40;99.90;;;;;;5054370;28;1953;-64
2023/03/06 10:45:11;;;;;;;;;;;5.50;99.90;;;;;;5054577;28;983;-65
2023/03/06 10:47:39;;;;;;;;;;;5.60;99.90;;;;;;5053909;28;876;-65
2023/03/06 10:50:25;;;;;;;;;;;5.70;99.90;;;;;;5054436;28;1144;-64
2023/03/06 10:53:18;;;;;;;;;;;5.70;99.90;;;;;;5054278;28;1671;-64
2023/03/06 10:55:49;;;;;;;;;;;5.60;99.90;;;;;;5053876;28;1331;-63
2023/03/06 10:58:17;;;;;;;;;;;5.60;99.90;;;;;;5054693;28;1672;-64
2023/03/06 11:00:44;;;;;;;;;;;5.80;99.90;;;;;;5054883;28;1977;-64
2023/03/06 11:03:18;;;;;;;;;;;5.80;99.90;;;;;;5054371;28;1141;-64
2023/03/06 11:06:01;;;;;;;;;;;5.90;99.90;;;;;;5054499;28;1239;-65
2023/03/06 11:08:28;;;;;;;;;;;5.90;99.90;;;;;;5054369;28;799;-65
2023/03/06 11:10:55;;;;;;;;;;;6.00;99.90;;;;;;5053581;28;1042;-64
2023/03/06 11:13:22;;;;;;;;;;;6.00;99.90;;;;;;5054018;28;1165;-65
2023/03/06 11:15:56;;;;;;;;;;;6.00;99.90;;;;;;5054388;28;1068;-65
2023/03/06 11:18:26;;;;;;;;;;;6.10;99.90;;;;;;5053953;28;1290;-64
2023/03/06 11:20:53;;;;;;;;;;;6.20;99.90;;;;;;5056566;28;1902;-65
2023/03/06 11:23:35;;;;;;;;;;;6.20;99.90;;;;;;5057284;28;1171;-65
2023/03/06 11:26:16;;;;;;;;;;;6.30;99.90;;;;;;5058194;28;1234;-65
2023/03/06 11:28:55;;;;;;;;;;;6.30;99.90;;;;;;5056332;28;1266;-65
2023/03/06 11:31:30;;;;;;;;;;;6.40;99.90;;;;;;5056280;28;1388;-65
2023/03/06 11:34:11;;;;;;;;;;;6.50;99.90;;;;;;5057988;28;1270;-65
2023/03/06 11:36:47;;;;;;;;;;;6.50;99.90;;;;;;5055770;28;1301;-64
2023/03/06 11:39:20;;;;;;;;;;;6.40;99.90;;;;;;5055473;28;1191;-65
2023/03/06 11:42:05;;;;;;;;;;;6.20;99.90;;;;;;5057685;28;1934;-65
2023/03/06 11:44:35;;;;;;;;;;;6.40;99.90;;;;;;5055252;28;1222;-63
2023/03/06 11:47:19;;;;;;;;;;;6.50;99.90;;;;;;5057719;28;982;-63
2023/03/06 11:49:49;;;;;;;;;;;6.50;99.90;;;;;;5058287;28;1050;-63
2023/03/06 11:52:39;;;;;;;;;;;6.60;99.90;;;;;;5058350;28;1287;-64
2023/03/06 11:55:07;;;;;;;;;;;6.50;99.90;;;;;;5054827;28;1123;-63
2023/03/06 11:57:39;;;;;;;;;;;6.50;99.90;;;;;;5057434;28;975;-63
2023/03/06 12:00:11;;;;;;;;;;;6.60;99.90;;;;;;5057786;28;825;-64
2023/03/06 12:02:56;;;;;;;;;;;6.60;99.90;;;;;;5057672;28;1902;-65
2023/03/06 12:05:29;;;;;;;;;;;6.80;99.90;;;;;;5057324;28;1078;-65
2023/03/06 12:08:02;;;;;;;;;;;6.90;99.90;;;;;;5056717;28;1090;-65
2023/03/06 12:10:40;;;;;;;;;;;7.00;99.90;;;;;;5057653;28;991;-65
2023/03/06 12:13:06;;;;;;;;;;;7.00;99.90;;;;;;5057399;28;1142;-63
2023/03/06 12:15:32;;;;;;;;;;;7.00;99.90;;;;;;5057452;28;740;-65
2023/03/06 12:17:59;;;;;;;;;;;6.90;99.90;;;;;;5056682;28;1835;-65
2023/03/06 12:20:43;;;;;;;;;;;7.00;99.90;;;;;;5057389;28;914;-65
2023/03/06 12:23:22;;;;;;;;;;;7.00;99.90;;;;;;5056924;28;1961;-65
2023/03/06 12:26:01;;;;;;;;;;;6.80;99.90;;;;;;5057433;28;1139;-65
2023/03/06 12:28:37;;;;;;;;;;;6.80;99.90;;;;;;5056579;28;1065;-65
2023/03/06 12:31:07;;;;;;;;;;;6.80;99.90;;;;;;5056317;28;837;-64
2023/03/06 12:33:36;;;;;;;;;;;6.90;99.90;;;;;;5056722;28;1094;-65
2023/03/06 12:36:03;;;;;;;;;;;6.80;99.90;;;;;;5056811;28;1070;-64
2023/03/06 12:38:32;;;;;;;;;;;6.80;99.90;;;;;;5056504;28;1101;-65
2023/03/06 12:41:13;;;;;;;;;;;6.80;99.90;;;;;;5056877;28;989;-64
2023/03/06 12:43:54;;;;;;;;;;;6.80;99.90;;;;;;5056767;28;1141;-65
2023/03/06 12:46:21;;;;;;;;;;;6.80;99.90;;;;;;5056730;28;892;-64
2023/03/06 12:49:06;;;;;;;;;;;6.90;99.90;;;;;;5056288;28;1053;-64
2023/03/06 12:51:33;;;;;;;;;;;6.90;99.90;;;;;;5053393;28;1091;-64
2023/03/06 12:54:00;;;;;;;;;;;6.90;99.90;;;;;;5056567;28;1239;-64
2023/03/06 12:56:27;;;;;;;;;;;6.90;99.90;;;;;;5056157;28;1049;-65
2023/03/06 12:58:54;;;;;;;;;;;7.10;99.90;;;;;;5056611;28;827;-64
2023/03/06 13:01:38;;;;;;;;;;;7.10;99.90;;;;;;5056233;28;1902;-64
2023/03/06 13:04:17;;;;;;;;;;;7.10;99.90;;;;;;5036603;28;1010;-65
2023/03/06 13:06:53;;;;;;;;;;;7.20;99.90;;;;;;5035798;28;1116;-64
2023/03/06 13:09:27;;;;;;;;;;;7.30;99.90;;;;;;5036677;28;1005;-63
2023/03/06 13:12:08;;;;;;;;;;;7.30;99.90;;;;;;5039999;28;1196;-64
2023/03/06 13:14:37;;;;;;;;;;;7.10;99.90;;;;;;5056594;28;811;-64
2023/03/06 13:17:19;;;;;;;;;;;7.20;99.90;;;;;;5055885;28;938;-64
2023/03/06 13:19:46;;;;;;;;;;;7.20;99.90;;;;;;5056593;28;1045;-64
2023/03/06 13:22:13;;;;;;;;;;;7.20;99.90;;;;;;5056223;28;1902;-64
2023/03/06 13:24:41;;;;;;;;;;;7.20;99.90;;;;;;5056291;28;895;-65
2023/03/06 13:27:09;;;;;;;;;;;7.20;99.90;;;;;;5055932;28;998;-64
2023/03/06 13:29:35;;;;;;;;;;;7.10;99.90;;;;;;5055608;28;897;-64
2023/03/06 13:32:01;;;;;;;;;;;7.30;99.90;;;;;;5055570;28;1102;-65
2023/03/06 13:34:30;;;;;;;;;;;7.30;99.90;;;;;;5056444;28;1080;-65
2023/03/06 13:37:12;;;;;;;;;;;7.20;99.90;;;;;;5055902;28;978;-65
2023/03/06 13:39:53;;;;;;;;;;;7.20;99.90;;;;;;5055803;28;934;-65
2023/03/06 13:42:25;;;;;;;;;;;7.20;99.90;;;;;;5054870;28;1903;-65
2023/03/06 13:44:51;;;;;;;;;;;7.20;99.90;;;;;;5055087;28;919;-65
2023/03/06 13:47:21;;;;;;;;;;;7.20;99.90;;;;;;5055085;28;1094;-63
2023/03/06 13:49:47;;;;;;;;;;;7.20;99.90;;;;;;5055834;28;1102;-64
2023/03/06 13:52:20;;;;;;;;;;;7.20;99.90;;;;;;5055905;28;1113;-65
2023/03/06 13:55:13;;;;;;;;;;;7.10;99.90;;;;;;5055653;28;1710;-64
2023/03/06 13:57:45;;;;;;;;;;;7.10;99.90;;;;;;5054953;28;1105;-66
2023/03/06 14:00:15;;;;;;;;;;;7.10;99.90;;;;;;5055446;28;1021;-66
2023/03/06 14:02:46;;;;;;;;;;;7.20;99.90;;;;;;5055287;28;1906;-64
2023/03/06 14:05:21;;;;;;;;;;;7.30;99.90;;;;;;5112354;27;1182;-63
2023/03/06 14:08:01;;;;;;;;;;;7.30;99.90;;;;;;5112092;28;923;-64
2023/03/06 14:10:30;;;;;;;;;;;7.30;99.90;;;;;;5112218;28;1707;-64
2023/03/06 14:13:01;;;;;;;;;;;7.40;99.90;;;;;;5112056;28;1098;-63
2023/03/06 14:15:34;;;;;;;;;;;7.40;99.90;;;;;;5112155;28;889;-64
2023/03/06 14:18:05;;;;;;;;;;;7.50;99.90;;;;;;5111815;28;1002;-63
2023/03/06 14:20:41;;;;;;;;;;;7.50;99.90;;;;;;5112509;28;1033;-63
2023/03/06 14:23:27;;;;;;;;;;;7.60;99.90;;;;;;5111923;28;1984;-64
2023/03/06 14:26:13;;;;;;;;;;;7.60;99.90;;;;;;5111789;28;1342;-63
2023/03/06 14:28:40;;;;;;;;;;;7.60;99.90;;;;;;5111800;28;749;-63
2023/03/06 14:31:27;;;;;;;;;;;7.60;99.90;;;;;;5111551;28;1070;-64
2023/03/06 14:33:55;;;;;;;;;;;7.60;99.90;;;;;;5111177;28;1242;-64
2023/03/06 14:36:23;;;;;;;;;;;7.60;99.90;;;;;;5111317;28;1010;-63
2023/03/06 14:38:53;;;;;;;;;;;7.70;99.90;;;;;;5111777;28;850;-63
2023/03/06 14:41:26;;;;;;;;;;;7.70;99.90;;;;;;5111788;28;1058;-63
2023/03/06 14:44:05;;;;;;;;;;;7.70;99.90;;;;;;5111476;28;1914;-63
2023/03/06 14:46:32;;;;;;;;;;;7.70;99.90;;;;;;5111502;28;979;-63
2023/03/06 14:48:58;;;;;;;;;;;7.60;99.90;;;;;;5111587;28;1094;-64
2023/03/06 14:51:24;;;;;;;;;;;7.60;99.90;;;;;;5110375;28;1077;-64
2023/03/06 14:53:52;;;;;;;;;;;7.60;99.90;;;;;;5111334;28;1184;-63
2023/03/06 14:56:20;;;;;;;;;;;7.50;99.90;;;;;;5111082;28;979;-63